地図

経路データ

SID SEASON NUMBER BASIN SUBBASIN NAME ISO_TIME NATURE LAT LON WMO_WIND WMO_PRES WMO_AGENCY TRACK_TYPE DIST2LAND LANDFALL IFLAG USA_AGENCY USA_ATCF_ID USA_LAT USA_LON USA_RECORD USA_STATUS USA_WIND USA_PRES USA_SSHS USA_R34_NE USA_R34_SE USA_R34_SW USA_R34_NW USA_R50_NE USA_R50_SE USA_R50_SW USA_R50_NW USA_R64_NE USA_R64_SE USA_R64_SW USA_R64_NW USA_POCI USA_ROCI USA_RMW USA_EYE TOKYO_LAT TOKYO_LON TOKYO_GRADE TOKYO_WIND TOKYO_PRES TOKYO_R50_DIR TOKYO_R50_LONG TOKYO_R50_SHORT TOKYO_R30_DIR TOKYO_R30_LONG TOKYO_R30_SHORT TOKYO_LAND CMA_LAT CMA_LON CMA_CAT CMA_WIND CMA_PRES HKO_LAT HKO_LON HKO_CAT HKO_WIND HKO_PRES NEWDELHI_LAT NEWDELHI_LON NEWDELHI_GRADE NEWDELHI_WIND NEWDELHI_PRES NEWDELHI_CI NEWDELHI_DP NEWDELHI_POCI REUNION_LAT REUNION_LON REUNION_TYPE REUNION_WIND REUNION_PRES REUNION_TNUM REUNION_CI REUNION_RMW REUNION_R34_NE REUNION_R34_SE REUNION_R34_SW REUNION_R34_NW REUNION_R50_NE REUNION_R50_SE REUNION_R50_SW REUNION_R50_NW REUNION_R64_NE REUNION_R64_SE REUNION_R64_SW REUNION_R64_NW BOM_LAT BOM_LON BOM_TYPE BOM_WIND BOM_PRES BOM_TNUM BOM_CI BOM_RMW BOM_R34_NE BOM_R34_SE BOM_R34_SW BOM_R34_NW BOM_R50_NE BOM_R50_SE BOM_R50_SW BOM_R50_NW BOM_R64_NE BOM_R64_SE BOM_R64_SW BOM_R64_NW BOM_ROCI BOM_POCI BOM_EYE BOM_POS_METHOD BOM_PRES_METHOD NADI_LAT NADI_LON NADI_CAT NADI_WIND NADI_PRES WELLINGTON_LAT WELLINGTON_LON WELLINGTON_WIND WELLINGTON_PRES DS824_LAT DS824_LON DS824_STAGE DS824_WIND DS824_PRES TD9636_LAT TD9636_LON TD9636_STAGE TD9636_WIND TD9636_PRES TD9635_LAT TD9635_LON TD9635_WIND TD9635_PRES TD9635_ROCI NEUMANN_LAT NEUMANN_LON NEUMANN_CLASS NEUMANN_WIND NEUMANN_PRES MLC_LAT MLC_LON MLC_CLASS MLC_WIND MLC_PRES USA_GUST BOM_GUST BOM_GUST_PER REUNION_GUST REUNION_GUST_PER USA_SEAHGT USA_SEARAD_NE USA_SEARAD_SE USA_SEARAD_SW USA_SEARAD_NW STORM_SPEED STORM_DIR
1936282N11140 1936 56 WP MM NOT_NAMED 1936-10-08 10:00:00 NR 11.1000 140.200 main 1415 1412 __________O___ -1 11.1000 140.200 7 8 308
1936282N11140 1936 56 WP MM NOT_NAMED 1936-10-08 12:00:00 NR 11.2605 139.992 main 1429 1426 __________P___ -1 11.2605 139.992 7 8 309
1936282N11140 1936 56 WP MM NOT_NAMED 1936-10-08 15:00:00 NR 11.5033 139.690 main 1440 1436 __________P___ -1 11.5033 139.690 7 8 311
1936282N11140 1936 56 WP MM NOT_NAMED 1936-10-08 18:00:00 NR 11.7522 139.410 main 1462 1453 __________P___ -1 11.7522 139.410 7 7 315
1936282N11140 1936 56 WP MM NOT_NAMED 1936-10-08 21:00:00 NR 12.0109 139.169 main 1455 1445 __________P___ -1 12.0109 139.169 7 7 319
1936282N11140 1936 56 WP MM NOT_NAMED 1936-10-08 22:00:00 NR 12.1000 139.100 main 1447 1439 __________O___ -1 12.1000 139.100 7 7 326
1936282N11140 1936 56 WP MM NOT_NAMED 1936-10-09 00:00:00 NR 12.2832 138.979 main 1441 1425 __________P___ -1 12.2832 138.979 7 7 331
1936282N11140 1936 56 WP MM NOT_NAMED 1936-10-09 03:00:00 NR 12.5706 138.829 main 1427 1418 __________P___ -1 12.5706 138.829 7 7 335
1936282N11140 1936 56 WP MM NOT_NAMED 1936-10-09 06:00:00 NR 12.8731 138.696 main 1420 1410 __________P___ -1 12.8731 138.696 7 7 337
1936282N11140 1936 56 WP MM NOT_NAMED 1936-10-09 09:00:00 NR 13.1908 138.554 main 1414 1403 __________P___ -1 13.1908 138.554 7 7 336
1936282N11140 1936 56 WP MM NOT_NAMED 1936-10-09 10:00:00 NR 13.3000 138.500 main 1405 1396 __________O___ -1 13.3000 138.500 7 7 331
1936282N11140 1936 56 WP MM NOT_NAMED 1936-10-09 12:00:00 NR 13.5141 138.367 main 1398 1372 __________P___ -1 13.5141 138.367 7 8 328
1936282N11140 1936 56 WP MM NOT_NAMED 1936-10-09 15:00:00 NR 13.8476 138.149 main 1372 1361 __________P___ -1 13.8476 138.149 7 8 327
1936282N11140 1936 56 WP MM NOT_NAMED 1936-10-09 18:00:00 NR 14.1988 137.916 main 1361 1345 __________P___ -1 14.1988 137.916 7 9 328
1936282N11140 1936 56 WP MM NOT_NAMED 1936-10-09 21:00:00 NR 14.5708 137.679 main 1347 1336 __________P___ -1 14.5708 137.679 7 9 329
1936282N11140 1936 56 WP MM NOT_NAMED 1936-10-09 22:00:00 NR 14.7000 137.600 main 1338 1324 __________O___ -1 14.7000 137.600 7 9 331
1936282N11140 1936 56 WP MM NOT_NAMED 1936-10-10 00:00:00 NR 14.9767 137.445 main 1324 1313 __________P___ -1 14.9767 137.445 7 10 332
1936282N11140 1936 56 WP MM NOT_NAMED 1936-10-10 03:00:00 NR 15.4109 137.212 main 1313 1301 __________P___ -1 15.4109 137.212 7 10 333
1936282N11140 1936 56 WP MM NOT_NAMED 1936-10-10 06:00:00 NR 15.8486 136.984 main 1304 1294 __________P___ -1 15.8486 136.984 7 10 334
1936282N11140 1936 56 WP MM NOT_NAMED 1936-10-10 09:00:00 NR 16.2681 136.768 main 1301 1291 __________P___ -1 16.2681 136.768 7 9 334
1936282N11140 1936 56 WP MM NOT_NAMED 1936-10-10 10:00:00 NR 16.4000 136.700 main 1295 1289 __________O___ -1 16.4000 136.700 7 8 333
1936282N11140 1936 56 WP MM NOT_NAMED 1936-10-10 12:00:00 NR 16.6368 136.569 main 1293 1285 __________P___ -1 16.6368 136.569 7 8 332
1936282N11140 1936 56 WP MM NOT_NAMED 1936-10-10 15:00:00 NR 16.9668 136.385 main 1290 1279 __________P___ -1 16.9668 136.385 7 7 332
1936282N11140 1936 56 WP MM NOT_NAMED 1936-10-10 18:00:00 NR 17.2804 136.214 main 1284 1279 __________P___ -1 17.2804 136.214 7 7 333
1936282N11140 1936 56 WP MM NOT_NAMED 1936-10-10 21:00:00 NR 17.5932 136.052 main 1289 1279 __________P___ -1 17.5932 136.052 7 7 334
1936282N11140 1936 56 WP MM NOT_NAMED 1936-10-10 22:00:00 NR 17.7000 136.000 main 1284 1280 __________O___ -1 17.7000 136.000 7 7 335
1936282N11140 1936 56 WP MM NOT_NAMED 1936-10-11 00:00:00 NR 17.9328 135.892 main 1286 1282 __________P___ -1 17.9328 135.892 7 8 337
1936282N11140 1936 56 WP MM NOT_NAMED 1936-10-11 03:00:00 NR 18.2885 135.735 main 1289 1289 __________P___ -1 18.2885 135.735 7 8 338
1936282N11140 1936 56 WP MM NOT_NAMED 1936-10-11 06:00:00 NR 18.6437 135.587 main 1297 1295 __________P___ -1 18.6437 135.587 7 8 339
1936282N11140 1936 56 WP MM NOT_NAMED 1936-10-11 09:00:00 NR 18.9888 135.445 main 1304 1304 __________P___ -1 18.9888 135.445 7 7 339
1936282N11140 1936 56 WP MM NOT_NAMED 1936-10-11 10:00:00 NR 19.1000 135.400 main 1308 1304 __________O___ -1 19.1000 135.400 7 7 336
1936282N11140 1936 56 WP MM NOT_NAMED 1936-10-11 12:00:00 NR 19.2957 135.303 main 1309 1304 __________P___ -1 19.2957 135.303 7 6 335
1936282N11140 1936 56 WP MM NOT_NAMED 1936-10-11 15:00:00 NR 19.5762 135.164 main 1314 1305 __________P___ -1 19.5762 135.164 7 6 336
1936282N11140 1936 56 WP MM NOT_NAMED 1936-10-11 18:00:00 NR 19.8635 135.037 main 1312 1277 __________P___ -1 19.8635 135.037 7 6 340
1936282N11140 1936 56 WP MM NOT_NAMED 1936-10-11 21:00:00 NR 20.1824 134.930 main 1277 1266 __________P___ -1 20.1824 134.930 7 7 343
1936282N11140 1936 56 WP MM NOT_NAMED 1936-10-11 22:00:00 NR 20.3000 134.900 main 1266 1231 __________O___ -1 20.3000 134.900 7 8 346
1936282N11140 1936 56 WP MM NOT_NAMED 1936-10-12 00:00:00 NR 20.5578 134.826 main 1231 1185 __________P___ -1 20.5578 134.826 7 8 347
1936282N11140 1936 56 WP MM NOT_NAMED 1936-10-12 03:00:00 NR 20.9823 134.734 main 1185 1143 __________P___ -1 20.9823 134.734 7 9 351
1936282N11140 1936 56 WP MM NOT_NAMED 1936-10-12 06:00:00 NR 21.4436 134.680 main 1143 1091 __________P___ -1 21.4436 134.680 7 10 357
1936282N11140 1936 56 WP MM NOT_NAMED 1936-10-12 09:00:00 NR 21.9325 134.683 main 1091 1070 __________P___ -1 21.9325 134.683 7 10 0
1936282N11140 1936 56 WP MM NOT_NAMED 1936-10-12 10:00:00 NR 22.1000 134.700 main 1070 1039 __________O___ -1 22.1000 134.700 7 10 8
1936282N11140 1936 56 WP MM NOT_NAMED 1936-10-12 12:00:00 NR 22.4407 134.754 main 1042 985 __________P___ -1 22.4407 134.754 7 11 12
1936282N11140 1936 56 WP MM NOT_NAMED 1936-10-12 15:00:00 NR 22.9709 134.893 main 985 943 __________P___ -1 22.9709 134.893 7 11 16
1936282N11140 1936 56 WP MM NOT_NAMED 1936-10-12 18:00:00 NR 23.5073 135.086 main 943 903 __________P___ -1 23.5073 135.086 7 11 20
1936282N11140 1936 56 WP MM NOT_NAMED 1936-10-12 21:00:00 NR 24.0313 135.317 main 903 888 __________P___ -1 24.0313 135.317 7 11 22
1936282N11140 1936 56 WP MM NOT_NAMED 1936-10-12 22:00:00 NR 24.2000 135.400 main 888 865 __________O___ -1 24.2000 135.400 7 11 25
1936282N11140 1936 56 WP MM NOT_NAMED 1936-10-13 00:00:00 NR 24.5145 135.561 main 870 834 __________P___ -1 24.5145 135.561 7 10 27
1936282N11140 1936 56 WP MM NOT_NAMED 1936-10-13 03:00:00 NR 24.9673 135.827 main 834 811 __________P___ -1 24.9673 135.827 7 10 29
1936282N11140 1936 56 WP MM NOT_NAMED 1936-10-13 06:00:00 NR 25.4084 136.112 main 811 783 __________P___ -1 25.4084 136.112 7 10 31
1936282N11140 1936 56 WP MM NOT_NAMED 1936-10-13 09:00:00 NR 25.8503 136.404 main 783 780 __________P___ -1 25.8503 136.404 7 10 31
1936282N11140 1936 56 WP MM NOT_NAMED 1936-10-13 10:00:00 NR 26.0000 136.500 main 780 767 __________O___ -1 26.0000 136.500 3 10 29
1936282N11140 1936 56 WP MM NOT_NAMED 1936-10-13 12:00:00 NR 26.3048 136.690 main 767 745 __________P___ -1 26.3048 136.690 3 11 28
1936282N11140 1936 56 WP MM NOT_NAMED 1936-10-13 15:00:00 NR 26.7739 136.967 main 745 693 __________P___ -1 26.7739 136.967 3 11 27
1936282N11140 1936 56 WP MM NOT_NAMED 1936-10-13 18:00:00 NR 27.2532 137.239 main 693 656 __________P___ -1 27.2532 137.239 3 11 27
1936282N11140 1936 56 WP MM NOT_NAMED 1936-10-13 21:00:00 NR 27.7380 137.510 main 656 637 __________P___ -1 27.7380 137.510 3 11 26
1936282N11140 1936 56 WP MM NOT_NAMED 1936-10-13 22:00:00 NR 27.9000 137.600 main 637 __________O___ -1 27.9000 137.600 4 11 27

デジタル台風データ・検索

IBTrACS Databaseについて

本データベースは、米国NOAAが公開する1842年以降の世界の熱帯低気圧のベストトラックデータアーカイブInternational Best Track Archive for Climate Stewardship (IBTrACS)を、ウェブで閲覧しやすい形式に変換したものです。

最終更新日:2021-12-03